Archival Weather

Norman Y Mineta San Jose Intl

San Jose, California (KSJC)

Report from: Wednesday, January 31, 2024 10:53 PM PST
Current time: Monday, June 24, 2024 4:00 AM PDT

Current weather – Weather history – Daily summaries
Weather forecast

Present weatherRain, mist
Temperature12.8°C (55.0°F)
Dew point11.1°C (52.0°F)
Winds 3 kts (1.5 m/s, 3.5 mph) East-Southeast (120°)
Visibility5 mi. (8 km)
Clouds Few clouds 4,400 ft. (1,341 m)
Ceiling: Overcast 5,500 ft. (1,676 m)
Altimeter29.64 in.Hg (1004 mB)
Precipitiation0.19 in. (5 mm)
Relative humidity89 %
Density altitude256 ft. (78 m)
Sea-level pressure100.4 kPa (1004 mB, 29.63 in.Hg)
Remarks Automated weather observing station with precipitation discriminator
Flight conditions Visual Meteorological Conditions
Raw dataKSJC 010653Z 12003KT 5SM RA BR FEW044 OVC055 13/11 A2964 RMK AO2 SLP035 P0019 T01280111
An error has occurred. This application may no longer respond until reloaded. Reload 🗙